createdAt,value
2023-05-22T00:01:42.749Z,101209.59
2023-05-22T00:04:10.085Z,101208.56
2023-05-22T00:06:37.123Z,101208.94
2023-05-22T00:09:03.778Z,101208.56
2023-05-22T00:11:30.507Z,101205.13
2023-05-22T00:13:56.985Z,101200.69
2023-05-22T00:16:23.563Z,101205.50
2023-05-22T00:18:50.084Z,101204.09
2023-05-22T00:21:17.072Z,101204.31
2023-05-22T00:23:43.635Z,101203.91
2023-05-22T00:26:10.378Z,101205.94
2023-05-22T00:28:36.903Z,101206.94
2023-05-22T00:31:03.790Z,101202.72
2023-05-22T00:33:30.307Z,101201.69
2023-05-22T00:35:56.774Z,101198.66
2023-05-22T00:38:31.032Z,101198.22
2023-05-22T00:40:57.984Z,101197.22
2023-05-22T00:43:24.540Z,101200.66
2023-05-22T00:45:52.445Z,101200.22
2023-05-22T00:48:19.028Z,101194.16
2023-05-22T00:50:45.663Z,101196.22
2023-05-22T00:53:13.280Z,101201.63
2023-05-22T00:55:40.211Z,101191.16
2023-05-22T00:58:09.037Z,101196.00
2023-05-22T01:00:36.949Z,101194.16
2023-05-22T01:03:05.669Z,101193.38
2023-05-22T01:05:32.401Z,101186.50
2023-05-22T01:07:58.993Z,101202.22
2023-05-22T01:10:26.384Z,101188.34
2023-05-22T01:13:20.290Z,101190.75
2023-05-22T01:16:19.178Z,101197.22
2023-05-22T01:19:04.546Z,101196.03
2023-05-22T01:21:40.598Z,101196.03
2023-05-22T01:24:28.222Z,101195.63
2023-05-22T01:27:07.727Z,101192.78
2023-05-22T01:29:54.148Z,101195.81
2023-05-22T01:32:23.201Z,101195.03
2023-05-22T01:34:53.612Z,101190.00
2023-05-22T01:37:22.503Z,101191.59
2023-05-22T01:39:51.272Z,101188.97
2023-05-22T01:42:18.899Z,101194.59
2023-05-22T01:44:45.517Z,101192.19
2023-05-22T01:47:12.016Z,101187.75
2023-05-22T01:49:39.838Z,101186.13
2023-05-22T01:52:06.673Z,101188.16
2023-05-22T01:54:42.444Z,101185.75
2023-05-22T01:57:17.812Z,101187.97
2023-05-22T01:59:54.527Z,101186.38
2023-05-22T02:02:23.293Z,101182.97
2023-05-22T02:04:55.945Z,101191.50
2023-05-22T02:07:25.014Z,101186.88
2023-05-22T02:09:54.012Z,101178.22
2023-05-22T02:12:22.706Z,101181.25
2023-05-22T02:14:49.471Z,101183.69
2023-05-22T02:17:18.110Z,101183.88
2023-05-22T02:19:45.251Z,101173.81
2023-05-22T02:22:14.776Z,101172.81
2023-05-22T02:24:48.672Z,101170.81
2023-05-22T02:27:15.330Z,101171.47
2023-05-22T02:29:41.832Z,101168.47
2023-05-22T02:32:08.433Z,101173.31
2023-05-22T02:34:35.064Z,101167.91
2023-05-22T02:37:05.383Z,101177.38
2023-05-22T02:39:31.935Z,101180.44
2023-05-22T02:41:58.574Z,101170.97
2023-05-22T02:44:25.066Z,101174.41
2023-05-22T02:46:51.627Z,101175.44
2023-05-22T02:49:18.243Z,101168.00
2023-05-22T02:51:47.647Z,101162.78
2023-05-22T02:54:15.952Z,101164.38
2023-05-22T02:56:43.323Z,101155.69
2023-05-22T02:59:10.090Z,101152.84
2023-05-22T03:01:38.825Z,101149.44
2023-05-22T03:04:06.780Z,101162.78
2023-05-22T03:06:35.063Z,101156.28
2023-05-22T03:09:03.936Z,101154.69
2023-05-22T03:11:31.444Z,101165.19
2023-05-22T03:13:58.071Z,101162.78
2023-05-22T03:16:25.027Z,101159.13
2023-05-22T03:18:53.428Z,101165.19
2023-05-22T03:21:19.992Z,101149.41
2023-05-22T03:23:47.222Z,101155.63
2023-05-22T03:26:13.771Z,101148.53
2023-05-22T03:28:40.641Z,101153.75
2023-05-22T03:31:09.311Z,101156.94
2023-05-22T03:33:35.918Z,101161.19
2023-05-22T03:36:03.580Z,101157.91
2023-05-22T03:38:30.109Z,101162.50
2023-05-22T03:40:56.632Z,101161.09
2023-05-22T03:43:23.151Z,101158.84
2023-05-22T03:45:49.767Z,101157.84
2023-05-22T03:48:16.345Z,101167.25
2023-05-22T03:50:42.878Z,101168.88
2023-05-22T03:53:09.450Z,101170.47
2023-05-22T03:55:35.982Z,101173.09
2023-05-22T03:58:02.631Z,101164.19
2023-05-22T04:00:29.509Z,101171.84
2023-05-22T04:02:58.706Z,101173.47
2023-05-22T04:05:25.536Z,101167.59
2023-05-22T04:07:52.215Z,101162.28
2023-05-22T04:10:22.545Z,101164.50
2023-05-22T04:12:49.899Z,101163.63
2023-05-22T04:15:16.566Z,101154.91
2023-05-22T04:17:43.213Z,101156.78
2023-05-22T04:20:11.245Z,101163.53
2023-05-22T04:22:38.539Z,101159.59
2023-05-22T04:25:05.460Z,101158.00
2023-05-22T04:27:33.254Z,101150.06
2023-05-22T04:30:00.667Z,101155.09
2023-05-22T04:32:27.584Z,101158.84
2023-05-22T04:34:54.285Z,101147.72
2023-05-22T04:37:20.875Z,101148.44
2023-05-22T04:39:47.422Z,101146.50
2023-05-22T04:42:14.511Z,101150.31
2023-05-22T04:44:41.892Z,101145.25
2023-05-22T04:47:14.220Z,101147.47
2023-05-22T04:49:42.471Z,101150.13
2023-05-22T04:52:11.531Z,101153.09
2023-05-22T04:54:38.939Z,101157.72
2023-05-22T04:57:05.844Z,101147.31
2023-05-22T04:59:37.926Z,101148.59
2023-05-22T05:02:05.803Z,101148.03
2023-05-22T05:04:33.325Z,101154.53
2023-05-22T05:07:00.228Z,101149.53
2023-05-22T05:09:26.732Z,101151.34
2023-05-22T05:11:55.036Z,101154.56
2023-05-22T05:14:21.894Z,101151.47
2023-05-22T05:16:48.487Z,101147.22
2023-05-22T05:19:21.310Z,101149.72
2023-05-22T05:21:49.335Z,101143.38
2023-05-22T05:24:19.999Z,101149.44
2023-05-22T05:26:46.549Z,101153.88
2023-05-22T05:29:14.527Z,101152.94
2023-05-22T05:31:41.235Z,101146.94
2023-05-22T05:34:07.789Z,101145.53
2023-05-22T05:36:34.432Z,101145.19
2023-05-22T05:39:01.128Z,101151.94
2023-05-22T05:41:27.726Z,101143.25
2023-05-22T05:43:57.304Z,101155.19
2023-05-22T05:46:24.462Z,101153.31
2023-05-22T05:48:51.009Z,101152.19
2023-05-22T05:51:17.594Z,101153.28
2023-05-22T05:53:44.132Z,101151.47
2023-05-22T05:56:10.718Z,101155.09
2023-05-22T05:58:37.498Z,101152.28
2023-05-22T06:01:07.429Z,101150.81
2023-05-22T06:03:34.258Z,101142.50
2023-05-22T06:06:01.036Z,101142.09
2023-05-22T06:08:28.328Z,101140.59
2023-05-22T06:10:54.915Z,101133.91
2023-05-22T06:13:21.413Z,101134.09
2023-05-22T06:15:48.432Z,101129.72
2023-05-22T06:18:15.064Z,101133.84
2023-05-22T06:20:41.719Z,101139.19
2023-05-22T06:23:08.591Z,101134.94
2023-05-22T06:25:35.177Z,101128.03
2023-05-22T06:28:01.964Z,101133.00
2023-05-22T06:30:39.617Z,101123.25
2023-05-22T06:33:07.666Z,101130.69
2023-05-22T06:35:34.273Z,101119.06
2023-05-22T06:38:00.742Z,101123.66
2023-05-22T06:40:27.406Z,101122.72
2023-05-22T06:42:53.962Z,101123.81
2023-05-22T06:45:20.535Z,101120.78
2023-05-22T06:47:47.167Z,101120.78
2023-05-22T06:50:13.815Z,101128.84
2023-05-22T06:52:40.415Z,101126.00
2023-05-22T06:55:07.778Z,101128.22
2023-05-22T06:57:34.719Z,101124.28
2023-05-22T07:00:01.390Z,101120.63
2023-05-22T07:02:27.947Z,101116.59
2023-05-22T07:04:54.685Z,101122.69
2023-05-22T07:07:21.378Z,101121.28
2023-05-22T07:09:48.025Z,101117.78
2023-05-22T07:12:14.738Z,101127.44
2023-05-22T07:14:41.337Z,101120.28
2023-05-22T07:17:08.100Z,101121.25
2023-05-22T07:19:35.738Z,101113.56
2023-05-22T07:22:02.431Z,101119.00
2023-05-22T07:24:29.074Z,101121.59
2023-05-22T07:26:55.733Z,101117.41
2023-05-22T07:29:23.343Z,101115.19
2023-05-22T07:31:50.340Z,101120.16
2023-05-22T07:34:16.973Z,101111.81
2023-05-22T07:36:43.573Z,101114.94
2023-05-22T07:39:10.038Z,101116.63
2023-05-22T07:41:36.803Z,101122.38
2023-05-22T07:44:03.366Z,101123.75
2023-05-22T07:46:29.984Z,101120.47
2023-05-22T07:48:56.905Z,101123.66
2023-05-22T07:51:23.535Z,101123.72
2023-05-22T07:53:50.099Z,101132.06
2023-05-22T07:56:17.580Z,101129.94
2023-05-22T07:58:44.346Z,101120.94
2023-05-22T08:01:11.148Z,101118.72
2023-05-22T08:03:37.963Z,101122.22
2023-05-22T08:06:04.788Z,101118.22
2023-05-22T08:08:32.079Z,101126.50
2023-05-22T08:13:28.047Z,101132.13
2023-05-22T08:16:00.615Z,101120.53
2023-05-22T08:18:29.225Z,101123.50
2023-05-22T08:20:56.292Z,101114.25
2023-05-22T08:23:22.948Z,101113.47
2023-05-22T08:25:50.277Z,101122.50
2023-05-22T08:28:17.285Z,101115.31
2023-05-22T08:30:44.098Z,101115.56
2023-05-22T08:33:12.027Z,101126.47
2023-05-22T08:35:39.043Z,101122.09
2023-05-22T08:38:05.632Z,101118.19
2023-05-22T08:40:38.024Z,101123.28
2023-05-22T08:43:06.150Z,101115.19
2023-05-22T08:45:34.191Z,101114.88
2023-05-22T08:48:08.162Z,101113.53
2023-05-22T08:50:41.723Z,101112.72
2023-05-22T08:53:13.044Z,101114.38
2023-05-22T08:55:39.932Z,101107.13
2023-05-22T08:58:06.789Z,101103.97
2023-05-22T09:00:34.057Z,101096.75
2023-05-22T09:03:00.826Z,101101.09
2023-05-22T09:05:27.623Z,101093.59
2023-05-22T09:08:02.577Z,101103.94
2023-05-22T09:10:32.149Z,101089.88
2023-05-22T09:13:05.371Z,101092.19
2023-05-22T09:15:32.786Z,101089.19
2023-05-22T09:18:00.265Z,101084.66
2023-05-22T09:20:26.868Z,101079.22
2023-05-22T09:22:53.528Z,101079.22
2023-05-22T09:25:23.250Z,101079.91
2023-05-22T09:27:49.889Z,101077.16
2023-05-22T09:30:19.744Z,101077.59
2023-05-22T09:32:48.844Z,101079.91
2023-05-22T09:35:16.355Z,101076.38
2023-05-22T09:37:43.113Z,101071.97
2023-05-22T09:40:14.042Z,101060.06
2023-05-22T09:42:45.699Z,101066.94
2023-05-22T09:45:12.859Z,101063.78
2023-05-22T09:47:40.387Z,101068.19
2023-05-22T09:50:10.321Z,101058.88
2023-05-22T09:52:37.937Z,101064.59
2023-05-22T09:55:07.007Z,101066.06
2023-05-22T09:57:41.917Z,101042.72
2023-05-22T10:00:13.051Z,101052.38
2023-05-22T10:02:44.273Z,101056.09
2023-05-22T10:05:12.157Z,101052.75
2023-05-22T10:07:52.841Z,101040.09
2023-05-22T10:10:22.889Z,101046.13
2023-05-22T10:13:04.596Z,101051.50
2023-05-22T10:15:32.242Z,101048.44
2023-05-22T10:17:59.397Z,101036.47
2023-05-22T10:20:27.047Z,101046.34
2023-05-22T10:22:54.566Z,101037.56
2023-05-22T10:25:21.891Z,101034.59
2023-05-22T10:27:51.943Z,101026.47
2023-05-22T10:30:48.051Z,101024.91
2023-05-22T10:33:21.451Z,101025.75
2023-05-22T10:35:56.956Z,101025.75
2023-05-22T10:38:26.600Z,101019.28
2023-05-22T10:40:54.179Z,101011.84
2023-05-22T10:43:22.625Z,101011.41
2023-05-22T10:45:49.246Z,101007.66
2023-05-22T10:48:21.579Z,101003.50
2023-05-22T10:50:54.131Z,100994.34
2023-05-22T10:53:25.470Z,100997.16
2023-05-22T10:56:02.620Z,100994.00
2023-05-22T10:58:30.892Z,100997.44
2023-05-22T11:01:18.359Z,100991.41
2023-05-22T11:04:02.069Z,100994.56
2023-05-22T11:06:41.050Z,100994.28
2023-05-22T11:09:29.500Z,100984.34
2023-05-22T11:12:17.402Z,100991.41
2023-05-22T11:14:59.018Z,100989.41
2023-05-22T11:17:29.293Z,100983.56
2023-05-22T11:22:33.906Z,100984.72
2023-05-22T11:25:03.360Z,100976.22
2023-05-22T11:27:30.078Z,100988.19
2023-05-22T11:29:56.787Z,100981.41
2023-05-22T11:32:23.688Z,100984.53
2023-05-22T11:34:50.666Z,100987.97
2023-05-22T11:37:20.841Z,100978.38
2023-05-22T11:39:57.985Z,100964.91
2023-05-22T11:42:25.056Z,100969.28
2023-05-22T11:44:51.917Z,100960.94
2023-05-22T11:47:18.569Z,100958.19
2023-05-22T11:49:45.159Z,100965.09
2023-05-22T11:52:11.785Z,100961.78
2023-05-22T11:54:39.076Z,100961.03
2023-05-22T11:57:07.788Z,100947.38
2023-05-22T11:59:34.499Z,100944.78
2023-05-22T12:02:01.146Z,100948.38
2023-05-22T12:04:28.128Z,100948.53
2023-05-22T12:06:55.378Z,100941.56
2023-05-22T12:09:22.309Z,100938.88
2023-05-22T12:11:49.020Z,100946.53
2023-05-22T12:14:16.170Z,100948.38
2023-05-22T12:16:44.871Z,100934.97
2023-05-22T12:19:12.745Z,100927.34
2023-05-22T12:21:41.754Z,100930.38
2023-05-22T12:24:08.518Z,100944.22
2023-05-22T12:26:36.495Z,100933.44
2023-05-22T12:29:06.433Z,100925.88
2023-05-22T12:31:38.392Z,100933.53
2023-05-22T12:34:07.615Z,100922.38
2023-05-22T12:36:41.154Z,100922.50
2023-05-22T12:39:17.408Z,100926.25
2023-05-22T12:41:45.509Z,100921.38
2023-05-22T12:44:13.021Z,100915.25
2023-05-22T12:46:41.126Z,100916.28
2023-05-22T12:49:07.891Z,100910.13
2023-05-22T12:51:34.711Z,100909.22
2023-05-22T12:54:04.681Z,100900.31
2023-05-22T12:56:31.936Z,100888.59
2023-05-22T12:58:58.899Z,100898.97
2023-05-22T13:01:26.285Z,100901.84
2023-05-22T13:03:53.311Z,100893.38
2023-05-22T13:06:20.538Z,100897.56
2023-05-22T13:08:47.199Z,100897.31
2023-05-22T13:11:13.911Z,100888.69
2023-05-22T13:13:40.397Z,100892.34
2023-05-22T13:16:07.117Z,100897.53
2023-05-22T13:18:33.708Z,100893.53
2023-05-22T13:21:00.663Z,100893.28
2023-05-22T13:23:27.260Z,100880.72
2023-05-22T13:25:53.861Z,100878.38
2023-05-22T13:28:21.293Z,100883.66
2023-05-22T13:30:47.886Z,100876.59
2023-05-22T13:33:14.607Z,100876.19
2023-05-22T13:35:41.409Z,100875.00
2023-05-22T13:38:08.082Z,100865.22
2023-05-22T13:40:34.661Z,100870.75
2023-05-22T13:43:01.216Z,100863.81
2023-05-22T13:45:27.843Z,100865.28
2023-05-22T13:47:54.533Z,100863.50
2023-05-22T13:50:21.123Z,100863.50
2023-05-22T13:52:47.678Z,100873.13
2023-05-22T13:55:14.177Z,100864.50
2023-05-22T13:57:40.912Z,100862.31
2023-05-22T14:00:09.417Z,100859.13
2023-05-22T14:02:36.134Z,100855.13
2023-05-22T14:05:02.787Z,100852.34
2023-05-22T14:07:29.298Z,100847.13
2023-05-22T14:09:55.900Z,100853.22
2023-05-22T14:12:22.417Z,100844.66
2023-05-22T14:14:49.000Z,100853.31
2023-05-22T14:17:15.563Z,100844.53
2023-05-22T14:19:42.192Z,100848.50
2023-05-22T14:22:08.778Z,100841.38
2023-05-22T14:24:35.464Z,100836.13
2023-05-22T14:27:02.117Z,100839.97
2023-05-22T14:29:28.785Z,100842.38
2023-05-22T14:32:04.135Z,100842.94
2023-05-22T14:34:30.865Z,100839.69
2023-05-22T14:36:58.369Z,100844.91
2023-05-22T14:39:26.102Z,100830.91
2023-05-22T14:41:53.559Z,100832.72
2023-05-22T14:44:22.398Z,100827.88
2023-05-22T14:46:50.944Z,100836.41
2023-05-22T14:49:17.751Z,100833.97
2023-05-22T14:51:48.219Z,100831.56
2023-05-22T14:54:17.641Z,100827.63
2023-05-22T14:56:44.390Z,100820.31
2023-05-22T14:59:14.364Z,100821.59
2023-05-22T15:01:41.474Z,100817.03
2023-05-22T15:04:08.896Z,100827.03
2023-05-22T15:06:36.231Z,100816.84
2023-05-22T15:09:03.237Z,100817.53
2023-05-22T15:11:29.776Z,100814.25
2023-05-22T15:13:56.391Z,100807.56
2023-05-22T15:16:23.168Z,100810.13
2023-05-22T15:18:50.610Z,100798.94
2023-05-22T15:21:17.504Z,100806.34
2023-05-22T15:23:44.205Z,100802.09
2023-05-22T15:26:10.935Z,100799.91
2023-05-22T15:28:37.426Z,100794.25
2023-05-22T15:31:03.940Z,100799.03
2023-05-22T15:33:30.831Z,100796.84
2023-05-22T15:35:57.381Z,100794.66
2023-05-22T15:38:23.950Z,100784.97
2023-05-22T15:40:50.457Z,100786.66
2023-05-22T15:43:16.950Z,100777.22
2023-05-22T15:45:46.702Z,100773.09
2023-05-22T15:48:13.409Z,100774.19
2023-05-22T15:50:40.080Z,100773.50
2023-05-22T15:53:06.777Z,100766.16
2023-05-22T15:55:34.124Z,100764.41
2023-05-22T15:58:02.688Z,100765.88
2023-05-22T16:00:29.282Z,100761.94
2023-05-22T16:02:56.039Z,100755.56
2023-05-22T16:05:22.876Z,100755.06
2023-05-22T16:07:49.467Z,100757.34
2023-05-22T16:10:16.164Z,100747.75
2023-05-22T16:12:42.767Z,100743.13
2023-05-22T16:15:09.878Z,100739.38
2023-05-22T16:17:36.394Z,100744.91
2023-05-22T16:20:04.670Z,100750.25
2023-05-22T16:22:44.066Z,100740.47
2023-05-22T16:25:17.948Z,100740.97
2023-05-22T16:27:44.638Z,100740.47
2023-05-22T16:30:12.128Z,100745.44
2023-05-22T16:32:39.117Z,100754.91
2023-05-22T16:35:06.167Z,100748.00
2023-05-22T16:37:33.703Z,100744.94
2023-05-22T16:40:00.497Z,100748.97
2023-05-22T16:42:27.247Z,100745.59
2023-05-22T16:44:54.066Z,100741.34
2023-05-22T16:47:21.668Z,100742.31
2023-05-22T16:49:48.247Z,100747.47
2023-05-22T16:52:14.806Z,100746.88
2023-05-22T16:54:41.417Z,100746.06
2023-05-22T16:57:07.948Z,100748.88
2023-05-22T16:59:34.708Z,100745.19
2023-05-22T17:02:01.311Z,100744.59
2023-05-22T17:04:27.790Z,100742.41
2023-05-22T17:06:55.912Z,100744.91
2023-05-22T17:09:22.446Z,100748.38
2023-05-22T17:11:49.186Z,100745.63
2023-05-22T17:14:15.760Z,100737.31
2023-05-22T17:16:42.418Z,100742.94
2023-05-22T17:19:09.807Z,100744.69
2023-05-22T17:21:36.998Z,100743.13
2023-05-22T17:24:03.964Z,100739.66
2023-05-22T17:26:30.512Z,100740.16
2023-05-22T17:28:57.069Z,100740.53
2023-05-22T17:31:23.678Z,100739.97
2023-05-22T17:33:50.705Z,100742.50
2023-05-22T17:36:17.194Z,100739.78
2023-05-22T17:38:43.690Z,100742.31
2023-05-22T17:41:10.390Z,100739.53
2023-05-22T17:43:38.225Z,100738.34
2023-05-22T17:46:05.767Z,100737.88
2023-05-22T17:48:33.562Z,100741.06
2023-05-22T17:51:00.796Z,100740.84
2023-05-22T17:53:32.024Z,100740.66
2023-05-22T17:55:58.558Z,100737.41
2023-05-22T17:58:25.194Z,100738.72
2023-05-22T18:00:52.200Z,100744.59
2023-05-22T18:03:20.536Z,100741.06
2023-05-22T18:05:48.565Z,100740.84
2023-05-22T18:08:15.401Z,100742.13
2023-05-22T18:10:42.122Z,100744.84
2023-05-22T18:13:09.275Z,100746.63
2023-05-22T18:15:35.933Z,100745.13
2023-05-22T18:18:03.311Z,100744.59
2023-05-22T18:20:30.269Z,100748.78
2023-05-22T18:22:56.940Z,100743.59
2023-05-22T18:25:23.627Z,100743.91
2023-05-22T18:27:50.352Z,100748.13
2023-05-22T18:30:17.845Z,100745.19
2023-05-22T18:32:44.450Z,100748.88
2023-05-22T18:35:11.088Z,100736.59
2023-05-22T18:37:37.851Z,100741.94
2023-05-22T18:40:07.519Z,100741.22
2023-05-22T18:42:34.057Z,100750.56
2023-05-22T18:45:00.797Z,100744.75
2023-05-22T18:47:27.389Z,100749.03
2023-05-22T18:49:54.045Z,100747.44
2023-05-22T18:52:20.725Z,100753.28
2023-05-22T18:54:47.373Z,100742.91
2023-05-22T18:57:16.254Z,100750.56
2023-05-22T18:59:43.484Z,100754.28
2023-05-22T19:02:10.103Z,100761.66
2023-05-22T19:04:36.842Z,100749.97
2023-05-22T19:07:03.749Z,100758.13
2023-05-22T19:09:30.370Z,100755.41
2023-05-22T19:11:56.904Z,100751.41
2023-05-22T19:14:23.423Z,100759.03
2023-05-22T19:16:50.074Z,100760.81
2023-05-22T19:19:16.794Z,100760.50
2023-05-22T19:21:43.369Z,100757.00
2023-05-22T19:24:10.191Z,100758.03
2023-05-22T19:26:36.998Z,100752.13
2023-05-22T19:29:03.934Z,100762.88
2023-05-22T19:31:30.878Z,100764.69
2023-05-22T19:33:57.694Z,100760.41
2023-05-22T19:36:24.339Z,100755.84
2023-05-22T19:38:53.266Z,100751.56
2023-05-22T19:41:23.156Z,100754.72
2023-05-22T19:43:51.354Z,100761.28
2023-05-22T19:46:18.146Z,100758.13
2023-05-22T19:48:44.798Z,100753.28
2023-05-22T19:51:11.447Z,100757.19
2023-05-22T19:53:38.153Z,100755.28
2023-05-22T19:56:04.840Z,100755.19
2023-05-22T19:58:31.443Z,100746.66
2023-05-22T20:00:58.081Z,100750.06
2023-05-22T20:03:26.460Z,100746.28
2023-05-22T20:05:53.704Z,100751.25
2023-05-22T20:08:22.263Z,100748.22
2023-05-22T20:10:48.916Z,100749.28
2023-05-22T20:13:15.626Z,100753.94
2023-05-22T20:15:42.351Z,100748.88
2023-05-22T20:18:10.704Z,100756.41
2023-05-22T20:20:37.414Z,100758.72
2023-05-22T20:23:04.039Z,100753.09
2023-05-22T20:25:30.592Z,100755.16
2023-05-22T20:27:57.091Z,100753.56
2023-05-22T20:30:23.673Z,100751.41
2023-05-22T20:32:50.409Z,100757.69
2023-05-22T20:35:20.181Z,100751.53
2023-05-22T20:37:47.601Z,100755.69
2023-05-22T20:40:15.011Z,100749.88
2023-05-22T20:42:42.756Z,100754.03
2023-05-22T20:45:12.872Z,100750.03
2023-05-22T20:47:41.023Z,100752.59
2023-05-22T20:50:08.989Z,100755.72
2023-05-22T20:52:37.307Z,100749.34
2023-05-22T20:55:04.819Z,100747.44
2023-05-22T20:57:31.495Z,100753.22
2023-05-22T20:59:58.483Z,100761.28
2023-05-22T21:02:26.021Z,100750.13
2023-05-22T21:04:53.261Z,100754.72
2023-05-22T21:07:19.907Z,100752.44
2023-05-22T21:09:46.515Z,100757.31
2023-05-22T21:12:13.364Z,100759.03
2023-05-22T21:14:40.333Z,100758.03
2023-05-22T21:17:07.132Z,100750.75
2023-05-22T21:19:33.892Z,100755.38
2023-05-22T21:22:03.212Z,100752.66
2023-05-22T21:24:31.721Z,100746.72
2023-05-22T21:26:58.840Z,100741.28
2023-05-22T21:29:25.481Z,100753.78
2023-05-22T21:31:52.105Z,100751.28
2023-05-22T21:34:18.775Z,100750.97
2023-05-22T21:36:45.446Z,100750.63
2023-05-22T21:39:12.104Z,100745.03
2023-05-22T21:41:38.664Z,100742.66
2023-05-22T21:44:05.182Z,100746.91
2023-05-22T21:46:31.873Z,100740.59
2023-05-22T21:48:58.660Z,100743.47
2023-05-22T21:51:25.232Z,100739.78
2023-05-22T21:53:51.795Z,100737.50
2023-05-22T21:56:18.242Z,100744.34
2023-05-22T21:58:44.814Z,100740.13
2023-05-22T22:01:12.573Z,100744.34
2023-05-22T22:03:39.297Z,100739.00
2023-05-22T22:06:06.558Z,100747.09
2023-05-22T22:08:33.188Z,100738.09
2023-05-22T22:10:59.815Z,100735.38
2023-05-22T22:13:26.443Z,100740.41
2023-05-22T22:15:53.590Z,100741.84
2023-05-22T22:18:20.559Z,100731.81
2023-05-22T22:20:50.142Z,100727.03
2023-05-22T22:23:16.912Z,100725.75
2023-05-22T22:25:43.516Z,100720.97
2023-05-22T22:28:10.077Z,100717.19
2023-05-22T22:30:36.647Z,100712.97
2023-05-22T22:33:03.269Z,100710.25
2023-05-22T22:35:29.876Z,100715.41
2023-05-22T22:37:56.996Z,100717.47
2023-05-22T22:40:24.815Z,100718.94
2023-05-22T22:42:53.201Z,100717.38
2023-05-22T22:45:19.729Z,100714.97
2023-05-22T22:47:46.328Z,100712.00
2023-05-22T22:50:12.896Z,100711.19
2023-05-22T22:52:45.318Z,100718.75
2023-05-22T22:55:12.238Z,100723.44
2023-05-22T22:57:39.042Z,100715.78
2023-05-22T23:00:06.603Z,100723.09
2023-05-22T23:02:33.274Z,100721.50
2023-05-22T23:05:00.300Z,100717.50
2023-05-22T23:07:28.139Z,100711.69
2023-05-22T23:09:54.701Z,100716.28
2023-05-22T23:12:21.248Z,100717.41
2023-05-22T23:14:47.719Z,100711.00
2023-05-22T23:17:14.290Z,100710.78
2023-05-22T23:19:40.861Z,100707.69
2023-05-22T23:22:07.599Z,100704.97
2023-05-22T23:24:34.206Z,100707.47
2023-05-22T23:27:01.417Z,100705.19
2023-05-22T23:29:27.980Z,100702.47
2023-05-22T23:31:55.439Z,100691.63
2023-05-22T23:34:22.020Z,100689.88
2023-05-22T23:36:48.609Z,100694.97
2023-05-22T23:39:15.132Z,100700.09
2023-05-22T23:41:42.178Z,100694.75
2023-05-22T23:44:08.779Z,100692.22
2023-05-22T23:46:37.190Z,100687.66
2023-05-22T23:49:03.773Z,100684.13
2023-05-22T23:51:31.244Z,100679.69
2023-05-22T23:53:57.798Z,100676.25
2023-05-22T23:56:24.319Z,100678.63
2023-05-22T23:58:50.860Z,100676.00
